createdAt,value
2023-03-12T00:00:12.077Z,93.24
2023-03-12T00:01:21.090Z,93.40
2023-03-12T00:02:11.146Z,93.60
2023-03-12T00:03:11.085Z,93.58
2023-03-12T00:04:11.125Z,93.76
2023-03-12T00:05:11.078Z,94.16
2023-03-12T00:06:11.294Z,94.26
2023-03-12T00:07:11.074Z,94.17
2023-03-12T00:08:11.085Z,94.19
2023-03-12T00:09:11.070Z,94.13
2023-03-12T00:10:11.074Z,94.19
2023-03-12T00:11:11.090Z,94.39
2023-03-12T00:12:11.071Z,94.11
2023-03-12T00:13:11.073Z,93.97
2023-03-12T00:14:11.086Z,94.21
2023-03-12T00:15:11.073Z,94.28
2023-03-12T00:16:11.197Z,94.51
2023-03-12T00:17:11.081Z,94.36
2023-03-12T00:18:11.074Z,94.43
2023-03-12T00:19:12.074Z,94.45
2023-03-12T00:20:11.075Z,94.24
2023-03-12T00:21:11.121Z,94.21
2023-03-12T00:22:11.076Z,94.26
2023-03-12T00:23:11.076Z,94.27
2023-03-12T00:24:11.072Z,94.21
2023-03-12T00:25:13.075Z,94.07
2023-03-12T00:26:11.073Z,94.13
2023-03-12T00:27:11.074Z,94.07
2023-03-12T00:28:11.073Z,93.74
2023-03-12T00:29:11.083Z,93.91
2023-03-12T00:30:11.079Z,93.90
2023-03-12T00:31:19.125Z,94.02
2023-03-12T00:32:11.069Z,94.07
2023-03-12T00:33:11.074Z,94.14
2023-03-12T00:34:11.074Z,94.06
2023-03-12T00:35:11.067Z,94.05
2023-03-12T00:36:11.093Z,94.13
2023-03-12T00:37:12.081Z,94.26
2023-03-12T00:38:11.067Z,94.31
2023-03-12T00:39:11.072Z,94.34
2023-03-12T00:40:11.082Z,94.25
2023-03-12T00:41:11.070Z,94.27
2023-03-12T00:42:11.074Z,94.44
2023-03-12T00:43:11.073Z,94.33
2023-03-12T00:44:11.072Z,94.15
2023-03-12T00:45:11.069Z,94.16
2023-03-12T00:46:11.101Z,94.20
2023-03-12T00:47:11.070Z,94.31
2023-03-12T00:48:11.068Z,94.25
2023-03-12T00:49:11.072Z,94.18
2023-03-12T00:50:11.084Z,94.04
2023-03-12T00:51:11.077Z,93.81
2023-03-12T00:52:11.077Z,93.78
2023-03-12T00:53:11.075Z,93.84
2023-03-12T00:54:11.074Z,94.00
2023-03-12T00:55:11.078Z,94.08
2023-03-12T00:56:11.067Z,93.88
2023-03-12T00:57:11.075Z,93.97
2023-03-12T00:58:11.078Z,94.00
2023-03-12T00:59:11.067Z,94.20
2023-03-12T01:00:14.075Z,94.11
2023-03-12T01:01:11.128Z,93.83
2023-03-12T01:02:11.063Z,93.79
2023-03-12T01:03:11.065Z,93.86
2023-03-12T01:04:11.121Z,93.86
2023-03-12T01:05:11.073Z,93.79
2023-03-12T01:06:11.085Z,93.99
2023-03-12T01:07:11.066Z,93.92
2023-03-12T01:08:11.073Z,94.07
2023-03-12T01:09:11.067Z,94.07
2023-03-12T01:10:11.065Z,94.00
2023-03-12T01:11:14.076Z,93.98
2023-03-12T01:12:11.069Z,94.08
2023-03-12T01:13:11.070Z,94.17
2023-03-12T01:14:11.077Z,94.23
2023-03-12T01:15:12.067Z,94.01
2023-03-12T01:16:11.122Z,94.00
2023-03-12T01:17:11.074Z,94.16
2023-03-12T01:18:11.079Z,94.23
2023-03-12T01:19:11.070Z,94.13
2023-03-12T01:20:11.078Z,94.07
2023-03-12T01:21:11.072Z,94.02
2023-03-12T01:22:11.066Z,94.09
2023-03-12T01:23:11.075Z,94.00
2023-03-12T01:24:11.072Z,93.97
2023-03-12T01:25:11.072Z,94.00
2023-03-12T01:26:11.075Z,93.86
2023-03-12T01:27:11.072Z,93.75
2023-03-12T01:28:11.076Z,93.74
2023-03-12T01:29:11.080Z,93.76
2023-03-12T01:30:11.070Z,93.60
2023-03-12T01:31:11.169Z,93.45
2023-03-12T01:32:11.077Z,93.47
2023-03-12T01:33:11.070Z,93.59
2023-03-12T01:34:11.082Z,93.68
2023-03-12T01:35:11.105Z,93.76
2023-03-12T01:36:15.118Z,93.76
2023-03-12T01:37:11.068Z,93.72
2023-03-12T01:38:12.074Z,93.57
2023-03-12T01:39:11.101Z,93.89
2023-03-12T01:40:16.072Z,93.85
2023-03-12T01:41:11.076Z,93.83
2023-03-12T01:42:11.075Z,93.90
2023-03-12T01:43:19.070Z,94.06
2023-03-12T01:44:14.073Z,94.10
2023-03-12T01:45:19.068Z,94.26
2023-03-12T01:46:19.067Z,94.38
2023-03-12T01:47:11.072Z,94.26
2023-03-12T01:48:11.070Z,94.19
2023-03-12T01:49:19.084Z,94.27
2023-03-12T01:50:11.074Z,94.15
2023-03-12T01:51:13.069Z,94.14
2023-03-12T01:52:15.077Z,94.46
2023-03-12T01:53:11.073Z,94.55
2023-03-12T01:54:19.066Z,94.39
2023-03-12T01:55:12.073Z,94.26
2023-03-12T01:56:11.064Z,94.41
2023-03-12T01:57:19.076Z,94.45
2023-03-12T01:58:11.064Z,94.39
2023-03-12T01:59:19.069Z,94.48
2023-03-12T02:00:15.077Z,94.47
2023-03-12T02:01:11.105Z,94.28
2023-03-12T02:02:11.063Z,94.28
2023-03-12T02:03:11.067Z,94.07
2023-03-12T02:04:11.110Z,94.21
2023-03-12T02:05:19.064Z,94.23
2023-03-12T02:06:13.066Z,94.30
2023-03-12T02:07:15.095Z,94.45
2023-03-12T02:08:11.069Z,94.44
2023-03-12T02:09:11.061Z,94.51
2023-03-12T02:10:11.064Z,94.50
2023-03-12T02:11:11.078Z,94.43
2023-03-12T02:12:11.074Z,94.49
2023-03-12T02:13:11.070Z,94.24
2023-03-12T02:14:11.076Z,94.36
2023-03-12T02:15:11.066Z,94.26
2023-03-12T02:16:11.081Z,94.66
2023-03-12T02:17:11.078Z,94.83
2023-03-12T02:18:15.075Z,94.70
2023-03-12T02:19:17.070Z,94.44
2023-03-12T02:20:23.076Z,94.37
2023-03-12T02:21:20.067Z,94.61
2023-03-12T02:22:11.067Z,94.69
2023-03-12T02:23:16.063Z,94.69
2023-03-12T02:24:19.071Z,94.81
2023-03-12T02:25:19.081Z,94.76
2023-03-12T02:26:11.095Z,94.90
2023-03-12T02:27:11.068Z,94.81
2023-03-12T02:28:13.078Z,94.84
2023-03-12T02:29:11.074Z,94.75
2023-03-12T02:30:12.067Z,94.66
2023-03-12T02:31:12.066Z,94.81
2023-03-12T02:32:15.105Z,94.87
2023-03-12T02:33:11.071Z,95.02
2023-03-12T02:34:11.069Z,94.86
2023-03-12T02:35:11.089Z,94.69
2023-03-12T02:36:11.139Z,94.83
2023-03-12T02:37:11.070Z,95.16
2023-03-12T02:38:19.070Z,95.23
2023-03-12T02:39:12.069Z,95.10
2023-03-12T02:40:21.080Z,94.91
2023-03-12T02:41:19.089Z,94.76
2023-03-12T02:42:11.077Z,94.80
2023-03-12T02:43:11.073Z,94.61
2023-03-12T02:44:21.088Z,94.79
2023-03-12T02:45:11.074Z,94.82
2023-03-12T02:46:11.157Z,94.81
2023-03-12T02:47:11.067Z,94.77
2023-03-12T02:48:11.071Z,95.00
2023-03-12T02:49:11.077Z,94.82
2023-03-12T02:50:11.077Z,95.31
2023-03-12T02:51:11.068Z,95.20
2023-03-12T02:52:11.079Z,95.00
2023-03-12T02:53:11.071Z,95.18
2023-03-12T02:54:11.073Z,95.25
2023-03-12T02:55:11.073Z,95.15
2023-03-12T02:56:11.076Z,94.92
2023-03-12T02:57:11.069Z,95.10
2023-03-12T02:58:11.073Z,95.04
2023-03-12T02:59:11.072Z,95.13
2023-03-12T03:00:11.069Z,95.06
2023-03-12T03:01:11.133Z,94.96
2023-03-12T03:02:11.072Z,94.86
2023-03-12T03:03:11.067Z,94.80
2023-03-12T03:04:11.113Z,94.70
2023-03-12T03:05:11.080Z,94.71
2023-03-12T03:06:11.080Z,94.47
2023-03-12T03:07:11.090Z,94.45
2023-03-12T03:08:11.073Z,94.41
2023-03-12T03:09:11.070Z,94.30
2023-03-12T03:10:11.087Z,94.38
2023-03-12T03:11:11.074Z,94.50
2023-03-12T03:12:11.069Z,94.46
2023-03-12T03:13:11.072Z,94.28
2023-03-12T03:14:11.076Z,94.29
2023-03-12T03:15:11.578Z,94.21
2023-03-12T03:16:11.081Z,94.15
2023-03-12T03:17:11.082Z,93.84
2023-03-12T03:18:11.072Z,93.89
2023-03-12T03:19:11.074Z,93.90
2023-03-12T03:20:13.086Z,93.85
2023-03-12T03:21:11.075Z,93.86
2023-03-12T03:22:11.072Z,93.93
2023-03-12T03:23:11.081Z,93.95
2023-03-12T03:24:11.077Z,93.93
2023-03-12T03:25:11.085Z,93.89
2023-03-12T03:26:11.076Z,93.82
2023-03-12T03:27:11.079Z,93.83
2023-03-12T03:28:11.076Z,93.77
2023-03-12T03:30:13.107Z,93.61
2023-03-12T03:31:11.138Z,93.62
2023-03-12T03:32:11.077Z,93.69
2023-03-12T03:33:11.081Z,93.68
2023-03-12T03:34:11.073Z,93.57
2023-03-12T03:35:11.076Z,93.58
2023-03-12T03:36:11.079Z,93.39
2023-03-12T03:37:11.074Z,93.31
2023-03-12T03:38:11.076Z,93.23
2023-03-12T03:39:11.081Z,92.95
2023-03-12T03:40:11.076Z,93.15
2023-03-12T03:41:11.074Z,93.14
2023-03-12T03:42:11.086Z,93.22
2023-03-12T03:43:11.080Z,93.21
2023-03-12T03:44:11.075Z,93.08
2023-03-12T03:45:11.084Z,93.26
2023-03-12T03:46:11.115Z,93.28
2023-03-12T03:47:11.077Z,93.35
2023-03-12T03:48:11.085Z,93.29
2023-03-12T03:49:11.078Z,93.25
2023-03-12T03:50:11.079Z,93.18
2023-03-12T03:51:11.110Z,93.16
2023-03-12T03:52:11.076Z,93.03
2023-03-12T03:53:11.078Z,93.04
2023-03-12T03:54:11.083Z,92.96
2023-03-12T03:55:11.074Z,93.00
2023-03-12T03:56:11.072Z,93.01
2023-03-12T03:57:11.085Z,92.92
2023-03-12T03:58:11.076Z,93.07
2023-03-12T03:59:11.072Z,92.97
2023-03-12T04:00:13.117Z,92.83
2023-03-12T04:01:12.061Z,92.69
2023-03-12T04:02:11.060Z,92.67
2023-03-12T04:03:11.075Z,92.69
2023-03-12T04:04:11.060Z,92.56
2023-03-12T04:05:11.185Z,92.50
2023-03-12T04:06:11.069Z,92.57
2023-03-12T04:07:11.064Z,92.55
2023-03-12T04:08:11.073Z,92.30
2023-03-12T04:09:11.068Z,92.35
2023-03-12T04:10:11.062Z,92.27
2023-03-12T04:11:14.064Z,92.10
2023-03-12T04:12:11.061Z,92.18
2023-03-12T04:13:11.062Z,92.23
2023-03-12T04:14:11.060Z,92.09
2023-03-12T04:15:11.068Z,92.11
2023-03-12T04:16:11.140Z,92.04
2023-03-12T04:17:11.061Z,91.93
2023-03-12T04:18:11.086Z,91.93
2023-03-12T04:19:11.060Z,91.95
2023-03-12T04:20:12.059Z,92.16
2023-03-12T04:21:11.060Z,92.19
2023-03-12T04:22:11.068Z,92.17
2023-03-12T04:23:11.058Z,91.96
2023-03-12T04:24:14.070Z,91.93
2023-03-12T04:25:11.067Z,91.93
2023-03-12T04:26:11.059Z,91.80
2023-03-12T04:27:11.060Z,91.87
2023-03-12T04:28:11.061Z,91.86
2023-03-12T04:29:11.071Z,91.98
2023-03-12T04:30:11.073Z,92.12
2023-03-12T04:31:11.131Z,92.13
2023-03-12T04:32:11.061Z,92.05
2023-03-12T04:33:11.059Z,91.97
2023-03-12T04:34:12.614Z,91.97
2023-03-12T04:35:11.062Z,92.03
2023-03-12T04:36:11.121Z,92.16
2023-03-12T04:37:11.068Z,92.06
2023-03-12T04:38:11.072Z,92.09
2023-03-12T04:39:13.061Z,92.16
2023-03-12T04:40:11.078Z,92.21
2023-03-12T04:41:13.083Z,92.09
2023-03-12T04:42:11.079Z,91.97
2023-03-12T04:43:11.063Z,92.12
2023-03-12T04:44:12.830Z,92.33
2023-03-12T04:45:11.066Z,92.23
2023-03-12T04:46:11.153Z,92.15
2023-03-12T04:47:11.073Z,92.11
2023-03-12T04:48:11.083Z,92.00
2023-03-12T04:49:11.066Z,92.07
2023-03-12T04:50:11.066Z,92.20
2023-03-12T04:51:11.080Z,92.42
2023-03-12T04:52:11.064Z,92.44
2023-03-12T04:53:11.075Z,92.31
2023-03-12T04:54:11.078Z,92.42
2023-03-12T04:55:11.066Z,92.59
2023-03-12T04:56:11.071Z,92.77
2023-03-12T04:57:11.076Z,92.81
2023-03-12T04:58:11.077Z,92.70
2023-03-12T04:59:11.069Z,92.67
2023-03-12T05:00:14.088Z,92.67
2023-03-12T05:01:18.071Z,92.85
2023-03-12T05:02:11.070Z,92.91
2023-03-12T05:03:11.076Z,92.86
2023-03-12T05:04:11.154Z,92.74
2023-03-12T05:05:12.089Z,92.76
2023-03-12T05:06:11.071Z,92.73
2023-03-12T05:07:11.071Z,92.69
2023-03-12T05:08:11.070Z,92.79
2023-03-12T05:09:11.071Z,92.78
2023-03-12T05:10:11.072Z,92.68
2023-03-12T05:11:11.080Z,92.50
2023-03-12T05:12:11.083Z,92.64
2023-03-12T05:13:15.079Z,92.62
2023-03-12T05:14:12.074Z,92.66
2023-03-12T05:15:11.070Z,92.62
2023-03-12T05:16:11.103Z,92.66
2023-03-12T05:17:11.077Z,92.70
2023-03-12T05:18:11.074Z,92.67
2023-03-12T05:19:11.080Z,92.64
2023-03-12T05:20:11.068Z,92.52
2023-03-12T05:21:19.074Z,92.62
2023-03-12T05:22:11.091Z,92.53
2023-03-12T05:23:11.075Z,92.47
2023-03-12T05:24:11.078Z,92.49
2023-03-12T05:25:11.078Z,92.51
2023-03-12T05:26:17.069Z,92.35
2023-03-12T05:27:12.219Z,92.25
2023-03-12T05:28:11.075Z,92.24
2023-03-12T05:29:11.072Z,92.24
2023-03-12T05:30:11.078Z,92.13
2023-03-12T05:31:11.116Z,91.97
2023-03-12T05:32:11.071Z,91.96
2023-03-12T05:33:11.070Z,91.89
2023-03-12T05:34:11.072Z,91.90
2023-03-12T05:35:11.078Z,91.80
2023-03-12T05:36:11.153Z,91.77
2023-03-12T05:37:11.074Z,91.73
2023-03-12T05:38:11.079Z,91.81
2023-03-12T05:39:11.069Z,91.59
2023-03-12T05:40:12.076Z,91.42
2023-03-12T05:41:15.082Z,91.41
2023-03-12T05:42:11.074Z,91.41
2023-03-12T05:43:11.091Z,91.32
2023-03-12T05:44:12.080Z,91.21
2023-03-12T05:45:11.076Z,91.25
2023-03-12T05:46:11.143Z,91.29
2023-03-12T05:47:11.074Z,91.14
2023-03-12T05:48:11.075Z,91.00
2023-03-12T05:49:11.072Z,91.16
2023-03-12T05:50:11.074Z,91.07
2023-03-12T05:51:11.076Z,91.16
2023-03-12T05:52:11.071Z,91.06
2023-03-12T05:53:11.079Z,91.21
2023-03-12T05:54:11.082Z,91.21
2023-03-12T05:55:11.073Z,91.25
2023-03-12T05:56:13.078Z,91.07
2023-03-12T05:57:11.094Z,91.32
2023-03-12T05:58:11.087Z,91.23
2023-03-12T05:59:11.088Z,91.26
2023-03-12T06:00:12.081Z,91.22
2023-03-12T06:01:14.072Z,91.04
2023-03-12T06:02:11.130Z,91.11
2023-03-12T06:03:11.123Z,91.09
2023-03-12T06:04:11.070Z,91.15
2023-03-12T06:05:11.089Z,91.33
2023-03-12T06:06:11.068Z,91.31
2023-03-12T06:07:11.069Z,91.31
2023-03-12T06:08:12.084Z,91.25
2023-03-12T06:09:11.073Z,91.07
2023-03-12T06:10:11.071Z,91.11
2023-03-12T06:11:11.065Z,91.07
2023-03-12T06:12:11.069Z,91.03
2023-03-12T06:13:11.075Z,90.98
2023-03-12T06:14:11.070Z,91.11
2023-03-12T06:15:11.071Z,91.13
2023-03-12T06:16:16.164Z,91.09
2023-03-12T06:17:11.069Z,91.11
2023-03-12T06:18:11.070Z,91.15
2023-03-12T06:19:11.068Z,91.10
2023-03-12T06:20:11.077Z,90.96
2023-03-12T06:21:14.068Z,91.01
2023-03-12T06:22:11.069Z,91.10
2023-03-12T06:23:11.078Z,91.04
2023-03-12T06:24:11.067Z,90.92
2023-03-12T06:25:11.070Z,90.91
2023-03-12T06:26:11.071Z,91.11
2023-03-12T06:27:11.067Z,91.06
2023-03-12T06:28:11.070Z,90.90
2023-03-12T06:29:11.077Z,90.91
2023-03-12T06:30:11.068Z,90.87
2023-03-12T06:31:11.151Z,90.91
2023-03-12T06:32:11.075Z,90.87
2023-03-12T06:33:12.066Z,90.77
2023-03-12T06:34:11.076Z,90.83
2023-03-12T06:35:11.078Z,90.88
2023-03-12T06:36:11.071Z,90.73
2023-03-12T06:37:11.073Z,90.67
2023-03-12T06:38:11.076Z,90.78
2023-03-12T06:39:11.068Z,90.94
2023-03-12T06:40:13.135Z,90.76
2023-03-12T06:41:11.073Z,90.85
2023-03-12T06:42:11.070Z,90.77
2023-03-12T06:43:15.073Z,90.80
2023-03-12T06:44:11.112Z,90.72
2023-03-12T06:45:11.080Z,90.62
2023-03-12T06:46:12.107Z,90.65
2023-03-12T06:47:11.084Z,90.56
2023-03-12T06:48:11.078Z,90.53
2023-03-12T06:49:11.071Z,90.53
2023-03-12T06:50:11.085Z,90.48
2023-03-12T06:51:11.081Z,90.51
2023-03-12T06:52:11.074Z,90.30
2023-03-12T06:53:11.072Z,90.25
2023-03-12T06:54:11.079Z,90.31
2023-03-12T06:55:11.073Z,90.24
2023-03-12T06:56:11.083Z,90.17
2023-03-12T06:57:11.075Z,90.34
2023-03-12T06:58:11.073Z,90.34
2023-03-12T06:59:11.079Z,90.16
2023-03-12T07:00:11.071Z,90.15
2023-03-12T07:01:11.056Z,90.05
2023-03-12T07:02:12.121Z,89.97
2023-03-12T07:03:11.058Z,89.96
2023-03-12T07:04:11.060Z,90.01
2023-03-12T07:05:11.148Z,89.98
2023-03-12T07:06:15.071Z,89.82
2023-03-12T07:07:12.087Z,89.83
2023-03-12T07:08:11.060Z,89.88
2023-03-12T07:09:11.070Z,89.89
2023-03-12T07:10:12.071Z,89.89
2023-03-12T07:11:11.064Z,89.74
2023-03-12T07:12:11.061Z,89.69
2023-03-12T07:13:11.063Z,89.79
2023-03-12T07:14:11.064Z,89.76
2023-03-12T07:15:11.064Z,89.57
2023-03-12T07:16:11.077Z,89.62
2023-03-12T07:17:11.070Z,89.77
2023-03-12T07:18:11.062Z,89.68
2023-03-12T07:19:11.063Z,89.75
2023-03-12T07:20:11.074Z,89.89
2023-03-12T07:21:11.064Z,89.84
2023-03-12T07:22:11.170Z,89.91
2023-03-12T07:23:11.070Z,90.08
2023-03-12T07:24:11.078Z,90.06
2023-03-12T07:25:11.095Z,89.99
2023-03-12T07:26:11.075Z,90.06
2023-03-12T07:27:11.126Z,90.00
2023-03-12T07:28:11.069Z,90.11
2023-03-12T07:29:11.076Z,90.04
2023-03-12T07:30:11.076Z,90.11
2023-03-12T07:31:11.094Z,90.06
2023-03-12T07:32:11.076Z,90.11
2023-03-12T07:33:13.226Z,90.11
2023-03-12T07:34:11.230Z,90.13
2023-03-12T07:35:11.072Z,89.99
2023-03-12T07:36:11.163Z,90.07
2023-03-12T07:37:11.106Z,89.89
2023-03-12T07:38:11.097Z,89.88
2023-03-12T07:39:11.072Z,89.87
2023-03-12T07:40:11.065Z,89.90
2023-03-12T07:41:11.217Z,89.69
2023-03-12T07:42:11.077Z,89.75
2023-03-12T07:43:15.063Z,89.66
2023-03-12T07:44:11.151Z,89.45
2023-03-12T07:45:11.095Z,89.42
2023-03-12T07:46:11.105Z,89.25
2023-03-12T07:47:23.062Z,89.20
2023-03-12T07:48:13.142Z,89.10
2023-03-12T07:49:11.070Z,88.84
2023-03-12T07:50:11.141Z,88.42
2023-03-12T07:51:11.081Z,88.43
2023-03-12T07:52:13.113Z,88.25
2023-03-12T07:53:11.061Z,88.20
2023-03-12T07:54:11.064Z,88.02
2023-03-12T07:55:11.193Z,87.86
2023-03-12T07:56:11.176Z,87.90
2023-03-12T07:57:11.337Z,87.76
2023-03-12T07:58:11.178Z,87.42
2023-03-12T07:59:11.204Z,87.02
2023-03-12T08:00:11.257Z,87.09
2023-03-12T08:01:11.106Z,87.07
2023-03-12T08:02:11.223Z,86.56
2023-03-12T08:03:11.520Z,86.79
2023-03-12T08:04:11.177Z,86.47
2023-03-12T08:05:11.132Z,86.04
2023-03-12T08:06:11.112Z,86.04
2023-03-12T08:07:11.117Z,86.14
2023-03-12T08:08:11.177Z,85.82
2023-03-12T08:09:11.088Z,85.34
2023-03-12T08:10:11.074Z,85.15
2023-03-12T08:11:11.065Z,84.99
2023-03-12T08:12:11.169Z,84.76
2023-03-12T08:13:11.103Z,84.27
2023-03-12T08:14:11.102Z,84.71
2023-03-12T08:15:11.062Z,84.46
2023-03-12T08:16:11.128Z,84.39
2023-03-12T08:17:11.066Z,84.40
2023-03-12T08:18:11.061Z,84.46
2023-03-12T08:19:11.068Z,84.07
2023-03-12T08:20:13.069Z,84.00
2023-03-12T08:21:11.065Z,83.99
2023-03-12T08:22:11.063Z,84.37
2023-03-12T08:23:11.074Z,84.16
2023-03-12T08:24:11.066Z,83.97
2023-03-12T08:25:11.073Z,83.91
2023-03-12T08:26:11.073Z,83.89
2023-03-12T08:27:11.068Z,83.82
2023-03-12T08:28:11.062Z,83.86
2023-03-12T08:29:11.066Z,83.81
2023-03-12T08:30:11.068Z,83.45
2023-03-12T08:31:11.062Z,83.72
2023-03-12T08:32:11.165Z,83.64
2023-03-12T08:33:11.109Z,83.69
2023-03-12T08:34:11.064Z,83.51
2023-03-12T08:35:11.074Z,83.43
2023-03-12T08:36:11.075Z,83.25
2023-03-12T08:37:11.064Z,83.16
2023-03-12T08:38:11.075Z,83.15
2023-03-12T08:39:11.073Z,83.05
2023-03-12T08:40:15.153Z,83.13
2023-03-12T08:41:11.065Z,83.06
2023-03-12T08:42:11.068Z,83.33
2023-03-12T08:43:11.068Z,83.03
2023-03-12T08:44:11.082Z,82.79
2023-03-12T08:45:11.079Z,82.34
2023-03-12T08:46:12.308Z,82.65
2023-03-12T08:47:11.074Z,82.71
2023-03-12T08:48:11.072Z,82.41
2023-03-12T08:49:11.070Z,82.50
2023-03-12T08:50:11.067Z,82.57
2023-03-12T08:51:11.086Z,82.32
2023-03-12T08:52:11.073Z,82.38
2023-03-12T08:53:11.083Z,82.06
2023-03-12T08:54:11.094Z,81.91
2023-03-12T08:55:11.080Z,81.81
2023-03-12T08:56:11.070Z,81.90
2023-03-12T08:57:11.068Z,82.20
2023-03-12T08:58:11.073Z,81.78
2023-03-12T08:59:11.082Z,82.13
2023-03-12T09:00:12.072Z,81.66
2023-03-12T09:01:11.073Z,81.77
2023-03-12T09:02:12.077Z,81.34
2023-03-12T09:03:11.161Z,80.89
2023-03-12T09:04:11.204Z,81.02
2023-03-12T09:05:11.071Z,80.97
2023-03-12T09:06:14.072Z,80.93
2023-03-12T09:07:11.076Z,80.65
2023-03-12T09:08:11.073Z,80.77
2023-03-12T09:09:11.074Z,80.59
2023-03-12T09:10:11.094Z,80.76
2023-03-12T09:11:11.096Z,80.67
2023-03-12T09:12:11.076Z,80.62
2023-03-12T09:13:11.082Z,80.35
2023-03-12T09:15:13.100Z,79.76
2023-03-12T09:16:11.083Z,79.74
2023-03-12T09:17:11.088Z,79.82
2023-03-12T09:18:11.089Z,79.53
2023-03-12T09:19:11.077Z,79.49
2023-03-12T09:20:13.082Z,79.45
2023-03-12T09:21:11.073Z,79.23
2023-03-12T09:22:11.079Z,79.27
2023-03-12T09:23:11.074Z,78.82
2023-03-12T09:24:11.073Z,78.97
2023-03-12T09:25:11.080Z,78.76
2023-03-12T09:26:13.096Z,79.03
2023-03-12T09:27:11.072Z,78.90
2023-03-12T09:28:11.080Z,78.70
2023-03-12T09:29:11.080Z,78.66
2023-03-12T09:30:11.074Z,78.70
2023-03-12T09:31:11.126Z,78.56
2023-03-12T09:32:11.078Z,78.53
2023-03-12T09:33:11.071Z,78.24
2023-03-12T09:34:11.067Z,77.95
2023-03-12T09:35:11.100Z,78.18
2023-03-12T09:36:11.197Z,78.22
2023-03-12T09:37:11.078Z,78.26
2023-03-12T09:38:13.077Z,78.43
2023-03-12T09:39:11.070Z,78.21
2023-03-12T09:40:15.078Z,78.62
2023-03-12T09:41:19.069Z,78.32
2023-03-12T09:42:19.077Z,78.47
2023-03-12T09:43:17.070Z,78.34
2023-03-12T09:44:22.069Z,78.30
2023-03-12T09:45:17.076Z,78.22
2023-03-12T09:46:19.117Z,78.05
2023-03-12T09:47:21.097Z,78.12
2023-03-12T09:48:19.074Z,78.32
2023-03-12T09:49:19.075Z,78.26
2023-03-12T09:50:19.075Z,78.22
2023-03-12T09:51:18.074Z,78.02
2023-03-12T09:52:19.075Z,77.54
2023-03-12T09:53:21.069Z,77.50
2023-03-12T09:54:21.073Z,77.29
2023-03-12T09:55:16.069Z,76.86
2023-03-12T09:56:16.074Z,76.79
2023-03-12T09:57:19.074Z,76.90
2023-03-12T09:58:19.072Z,76.48
2023-03-12T09:59:13.085Z,76.52
2023-03-12T10:00:13.080Z,76.44
2023-03-12T10:01:21.056Z,76.59
2023-03-12T10:02:19.057Z,76.30
2023-03-12T10:03:19.135Z,76.31
2023-03-12T10:04:20.092Z,76.11
2023-03-12T10:05:20.182Z,76.37
2023-03-12T10:06:19.082Z,76.55
2023-03-12T10:07:23.062Z,76.33
2023-03-12T10:08:24.662Z,76.72
2023-03-12T10:09:23.065Z,76.80
2023-03-12T10:10:19.074Z,77.07
2023-03-12T10:11:19.063Z,77.07
2023-03-12T10:12:21.060Z,77.07
2023-03-12T10:13:19.055Z,77.05
2023-03-12T10:14:24.242Z,77.42
2023-03-12T10:15:21.064Z,77.79
2023-03-12T10:16:19.145Z,77.75
2023-03-12T10:17:21.062Z,78.01
2023-03-12T10:18:21.198Z,77.83
2023-03-12T10:19:21.067Z,77.74
2023-03-12T10:20:19.062Z,77.75
2023-03-12T10:21:19.068Z,77.71
2023-03-12T10:22:21.066Z,77.70
2023-03-12T10:23:19.071Z,77.56
2023-03-12T10:24:19.061Z,77.49
2023-03-12T10:25:19.064Z,77.21
2023-03-12T10:26:19.075Z,77.29
2023-03-12T10:27:15.074Z,77.28
2023-03-12T10:28:18.064Z,77.32
2023-03-12T10:29:19.067Z,77.02
2023-03-12T10:30:19.066Z,77.18
2023-03-12T10:31:18.157Z,76.85
2023-03-12T10:32:23.144Z,76.83
2023-03-12T10:33:15.063Z,77.00
2023-03-12T10:34:19.074Z,76.74
2023-03-12T10:35:20.454Z,76.50
2023-03-12T10:36:16.062Z,76.49
2023-03-12T10:37:18.059Z,76.48
2023-03-12T10:38:21.064Z,76.66
2023-03-12T10:39:15.061Z,76.73
2023-03-12T10:40:19.063Z,76.31
2023-03-12T10:41:21.069Z,76.58
2023-03-12T10:42:18.072Z,76.32
2023-03-12T10:43:13.069Z,76.40
2023-03-12T10:44:13.064Z,76.11
2023-03-12T10:45:21.063Z,76.27
2023-03-12T10:46:21.082Z,75.92
2023-03-12T10:47:19.067Z,76.18
2023-03-12T10:48:15.070Z,76.16
2023-03-12T10:49:19.065Z,76.21
2023-03-12T10:50:18.060Z,75.83
2023-03-12T10:51:14.063Z,76.10
2023-03-12T10:52:19.073Z,76.13
2023-03-12T10:53:19.063Z,75.87
2023-03-12T10:54:19.062Z,76.05
2023-03-12T10:55:21.066Z,75.60
2023-03-12T10:56:11.064Z,75.54
2023-03-12T10:57:11.072Z,75.50
2023-03-12T10:58:19.073Z,75.08
2023-03-12T10:59:19.089Z,75.12
2023-03-12T11:00:15.068Z,74.99
2023-03-12T11:01:19.183Z,74.60
2023-03-12T11:02:19.088Z,74.24
2023-03-12T11:03:19.062Z,74.73
2023-03-12T11:04:17.065Z,74.01
2023-03-12T11:05:19.084Z,73.65
2023-03-12T11:06:15.136Z,73.47
2023-03-12T11:07:19.066Z,73.61
2023-03-12T11:08:19.066Z,73.17
2023-03-12T11:09:18.074Z,72.97
2023-03-12T11:10:16.066Z,72.92
2023-03-12T11:11:11.070Z,72.85
2023-03-12T11:12:19.068Z,72.70
2023-03-12T11:13:19.074Z,72.45
2023-03-12T11:14:20.065Z,72.65
2023-03-12T11:15:19.067Z,72.42
2023-03-12T11:16:21.149Z,72.21
2023-03-12T11:17:19.072Z,72.33
2023-03-12T11:18:19.076Z,72.34
2023-03-12T11:19:14.074Z,71.93
2023-03-12T11:20:19.070Z,71.55
2023-03-12T11:21:15.068Z,71.53
2023-03-12T11:22:11.074Z,71.74
2023-03-12T11:23:19.069Z,71.25
2023-03-12T11:24:13.067Z,71.11
2023-03-12T11:25:19.072Z,71.26
2023-03-12T11:26:16.071Z,71.22
2023-03-12T11:27:19.069Z,71.11
2023-03-12T11:28:19.075Z,71.05
2023-03-12T11:29:19.133Z,71.08
2023-03-12T11:30:17.134Z,70.85
2023-03-12T11:31:15.234Z,70.51
2023-03-12T11:32:19.149Z,70.55
2023-03-12T11:33:11.064Z,70.45
2023-03-12T11:34:19.076Z,70.67
2023-03-12T11:35:13.076Z,70.67
2023-03-12T11:36:21.066Z,70.69
2023-03-12T11:37:21.070Z,70.20
2023-03-12T11:38:18.068Z,70.60
2023-03-12T11:39:19.076Z,70.29
2023-03-12T11:40:23.069Z,69.94
2023-03-12T11:41:19.067Z,69.93
2023-03-12T11:42:21.078Z,69.93
2023-03-12T11:43:26.401Z,70.07
2023-03-12T11:44:23.083Z,69.90
2023-03-12T11:45:18.079Z,69.44
2023-03-12T11:46:19.100Z,69.95
2023-03-12T11:47:19.096Z,69.75
2023-03-12T11:48:19.119Z,69.46
2023-03-12T11:49:19.075Z,69.50
2023-03-12T11:50:19.077Z,69.30
2023-03-12T11:51:19.069Z,69.25
2023-03-12T11:52:19.066Z,69.31
2023-03-12T11:53:19.070Z,68.88
2023-03-12T11:54:19.078Z,69.53
2023-03-12T11:55:19.071Z,69.48
2023-03-12T11:56:21.260Z,69.42
2023-03-12T11:57:21.075Z,69.67
2023-03-12T11:58:21.077Z,69.82
2023-03-12T11:59:21.082Z,69.15
2023-03-12T12:00:19.093Z,68.89
2023-03-12T12:01:23.070Z,68.98
2023-03-12T12:02:19.103Z,68.97
2023-03-12T12:03:19.142Z,68.92
2023-03-12T12:04:19.082Z,69.17
2023-03-12T12:05:21.077Z,69.03
2023-03-12T12:06:19.077Z,69.14
2023-03-12T12:07:19.069Z,69.19
2023-03-12T12:08:19.072Z,69.00
2023-03-12T12:09:19.082Z,68.63
2023-03-12T12:10:19.219Z,68.58
2023-03-12T12:11:21.076Z,69.21
2023-03-12T12:12:23.075Z,68.88
2023-03-12T12:13:19.075Z,68.88
2023-03-12T12:14:19.083Z,69.08
2023-03-12T12:15:21.082Z,69.02
2023-03-12T12:16:19.132Z,68.79
2023-03-12T12:17:21.075Z,68.73
2023-03-12T12:18:19.077Z,68.82
2023-03-12T12:19:19.078Z,68.75
2023-03-12T12:20:23.081Z,68.60
2023-03-12T12:21:19.080Z,69.05
2023-03-12T12:22:19.080Z,68.95
2023-03-12T12:23:19.073Z,69.18
2023-03-12T12:24:19.076Z,69.09
2023-03-12T12:25:19.088Z,69.06
2023-03-12T12:26:17.098Z,69.01
2023-03-12T12:27:19.078Z,69.13
2023-03-12T12:28:21.082Z,69.21
2023-03-12T12:29:21.076Z,69.12
2023-03-12T12:30:19.214Z,69.10
2023-03-12T12:31:19.164Z,69.08
2023-03-12T12:32:15.104Z,69.19
2023-03-12T12:33:21.079Z,69.31
2023-03-12T12:34:19.078Z,69.24
2023-03-12T12:35:19.090Z,69.54
2023-03-12T12:36:11.176Z,69.55
2023-03-12T12:37:21.084Z,69.65
2023-03-12T12:38:19.079Z,69.56
2023-03-12T12:39:19.091Z,69.61
2023-03-12T12:40:18.144Z,70.05
2023-03-12T12:41:23.080Z,70.07
2023-03-12T12:42:14.100Z,69.53
2023-03-12T12:43:23.081Z,69.60
2023-03-12T12:44:16.078Z,69.52
2023-03-12T12:45:14.098Z,69.47
2023-03-12T12:46:18.171Z,69.33
2023-03-12T12:47:16.080Z,68.91
2023-03-12T12:48:18.102Z,69.11
2023-03-12T12:49:21.087Z,68.94
2023-03-12T12:50:17.095Z,68.74
2023-03-12T12:51:11.092Z,68.70
2023-03-12T12:52:16.089Z,68.59
2023-03-12T12:53:19.086Z,68.47
2023-03-12T12:54:21.080Z,68.37